Terminal Aerodrome Forecast
Issued by NWS Blacksburg, VA

Current Version | Previous Version | Graphics & Text | Print | Product List | Glossary On
Versions: 1 2 3 4 5 6 7 8 9 10 11 12 13 14 15 16 17 18 19
000
FTUS41 KRNK 161725
TAFBLF
TAF
KBLF 161725Z 1618/1718 30012G24KT P6SM SCT040
     FM170000 30007KT P6SM FEW250
     FM170300 31006KT P6SM BKN020
     FM170700 VRB03KT P6SM BKN040
     FM171300 00000KT P6SM SCT250=

USA.gov is the U.S. government's official web portal to all federal, state and local government web resources and services.